Airfield :
LOGIN :

Register | Disclaimer

   EN    FR    IT 

 










Legend :    VFR   Marginal VFR   IFR   Intensive IFR   Very Intensive IFR
Visi :
Ceiling :
>= 8 km
>= 3000ft
5 to 8 km
1000 to 3000 ft
1500m to 5 km
500 to 1000 ft
800 to 1500m
200 to 500 ft
< 800m
< 200 ft
Symbols :   Thunderstorms  Fog  Heavy snow  Heavy precipitations  Wind > 20 kt
SIGMETs :     Misc.  Thunderstorms  Icing  Turbulence  Mountain Waves  Volcanic Ashes






- Airport Elevation : 86 ft


LERT - Rota Navy

CURRENT METAR :
  • 212330Z 11004KT 080V150 CAVOK 16/11 Q1015 NOSIG

EXPIRED METARs :
  • 212300Z 11007KT 080V140 CAVOK 16/11 Q1015 NOSIG
  • 212230Z 11006KT 080V150 CAVOK 16/11 Q1015 NOSIG
  • 212200Z 11006KT 080V140 CAVOK 16/11 Q1015 NOSIG
  • 212130Z 12005KT 080V160 CAVOK 16/11 Q1015 NOSIG
  • 212100Z 12008KT 080V150 CAVOK 17/11 Q1015 NOSIG
  • 212030Z 13007KT CAVOK 17/11 Q1015 NOSIG
  • 212000Z 14007KT CAVOK 18/11 Q1014 NOSIG
  • 211930Z 14010KT CAVOK 18/11 Q1014 NOSIG
  • 211830Z 15007KT 110V200 CAVOK 20/10 Q1013 NOSIG

TAF TAF LERT
Valid from the 21 at 21:00 until the 22 at 21:00 UTC


212000Z 2121/2221 14006KT 9999 FEW030 TX25/2215Z TN12/2207Z
BECMG 2209/2211 28010KT



MET'MAP, your aeronautical weather chart ! - Copyright ORBIFLY December 2007 - Disclaimer

ORBIFLY MET'MAP TEAM :

Programming & Development : Alexandra Zaïnal
Original concept : Baudouin d'Aumeries
Technical & hardware support : Manuel Goepfert
Assistance : Marc-Olivier Méhu




SOURCES & CREDITS :

   NOAA